Time;durP1;ratioP1;P1;durP2;ratioP2;P2;SDS_P1;SDS_P2;PMS_P1;PMS_P2;Temp;Humidity;BMP_temperature;BMP_pressure;BME280_temperature;BME280_humidity;BME280_pressure;Samples;Min_cycle;Max_cycle;Signal;HPM_P1;HPM_P2
2023/10/31 00:00:31;;;;;;;2.35;1.10;;;;;;;;;;5028967;28;20272;-74
2023/10/31 00:02:56;;;;;;;3.08;1.88;;;;;;;;;;5029195;28;20018;-73
2023/10/31 00:05:21;;;;;;;3.43;1.63;;;;;;;;;;5035869;28;20009;-73
2023/10/31 00:07:46;;;;;;;3.23;1.60;;;;;;;;;;5029118;28;20467;-73
2023/10/31 00:10:11;;;;;;;2.43;1.53;;;;;;;;;;5025982;28;20267;-73
2023/10/31 00:12:38;;;;;;;5.60;2.45;;;;;;;;;;5028108;28;20781;-72
2023/10/31 00:15:04;;;;;;;4.43;2.30;;;;;;;;;;5036315;28;20067;-73
2023/10/31 00:17:29;;;;;;;7.75;2.38;;;;;;;;;;5030533;28;20485;-73
2023/10/31 00:19:54;;;;;;;6.73;2.53;;;;;;;;;;5040407;28;20021;-74
2023/10/31 00:22:19;;;;;;;7.40;2.90;;;;;;;;;;5040022;28;20611;-74
2023/10/31 00:24:44;;;;;;;5.13;2.92;;;;;;;;;;5032725;28;20256;-74
2023/10/31 00:27:10;;;;;;;4.35;2.67;;;;;;;;;;5029414;28;20013;-74
2023/10/31 00:29:35;;;;;;;6.47;3.20;;;;;;;;;;5031459;28;20025;-73
2023/10/31 00:32:00;;;;;;;4.23;2.33;;;;;;;;;;5030818;28;20021;-73
2023/10/31 00:34:25;;;;;;;7.97;2.75;;;;;;;;;;5027627;28;20746;-72
2023/10/31 00:36:51;;;;;;;9.97;2.63;;;;;;;;;;5031280;28;20013;-71
2023/10/31 00:39:16;;;;;;;8.40;3.90;;;;;;;;;;5029541;28;20832;-72
2023/10/31 00:41:44;;;;;;;6.77;3.37;;;;;;;;;;5029380;28;20268;-71
2023/10/31 00:44:09;;;;;;;7.03;3.45;;;;;;;;;;5030937;28;20771;-71
2023/10/31 00:46:34;;;;;;;5.53;3.03;;;;;;;;;;5029288;28;20033;-71
2023/10/31 00:49:00;;;;;;;6.57;3.63;;;;;;;;;;5026513;28;20285;-72
2023/10/31 00:51:25;;;;;;;6.33;3.73;;;;;;;;;;5027123;28;20271;-71
2023/10/31 00:53:50;;;;;;;6.80;3.03;;;;;;;;;;5030087;28;20433;-72
2023/10/31 00:56:15;;;;;;;4.72;3.00;;;;;;;;;;5029709;28;20279;-71
2023/10/31 00:58:40;;;;;;;4.53;3.23;;;;;;;;;;5030379;28;20118;-71
2023/10/31 01:01:06;;;;;;;2.13;1.38;;;;;;;;;;5026892;28;20279;-71
2023/10/31 01:03:31;;;;;;;4.30;2.87;;;;;;;;;;5030218;28;20022;-72
2023/10/31 01:05:56;;;;;;;3.83;2.58;;;;;;;;;;5029834;28;20788;-72
2023/10/31 01:08:21;;;;;;;4.15;2.55;;;;;;;;;;5021387;28;20049;-71
2023/10/31 01:10:46;;;;;;;5.53;2.53;;;;;;;;;;5023906;28;20402;-71
2023/10/31 01:13:12;;;;;;;4.35;1.95;;;;;;;;;;5029386;28;20284;-72
2023/10/31 01:15:37;;;;;;;3.87;1.30;;;;;;;;;;5028028;28;20158;-70
2023/10/31 01:18:02;;;;;;;5.43;2.53;;;;;;;;;;5026195;28;20316;-71
2023/10/31 01:20:27;;;;;;;2.85;1.80;;;;;;;;;;5027303;28;20448;-71
2023/10/31 01:22:52;;;;;;;7.13;1.87;;;;;;;;;;5029573;28;20446;-71
2023/10/31 01:25:17;;;;;;;4.03;2.00;;;;;;;;;;5029349;28;20278;-71
2023/10/31 01:27:43;;;;;;;4.90;1.93;;;;;;;;;;5028005;28;20267;-72
2023/10/31 01:30:08;;;;;;;5.75;2.10;;;;;;;;;;5023060;28;20796;-71
2023/10/31 01:32:33;;;;;;;6.07;1.52;;;;;;;;;;5030020;28;20044;-71
2023/10/31 01:34:59;;;;;;;4.70;2.10;;;;;;;;;;5027663;28;20025;-71
2023/10/31 01:37:24;;;;;;;9.23;2.63;;;;;;;;;;5026606;28;20644;-70
2023/10/31 01:39:49;;;;;;;2.83;2.20;;;;;;;;;;5028843;28;20022;-72
2023/10/31 01:42:15;;;;;;;8.35;2.53;;;;;;;;;;5030467;28;20032;-71
2023/10/31 01:44:40;;;;;;;5.72;3.15;;;;;;;;;;5024575;28;20022;-71
2023/10/31 01:47:05;;;;;;;5.95;2.25;;;;;;;;;;5028250;28;20021;-72
2023/10/31 01:49:30;;;;;;;8.90;2.30;;;;;;;;;;5028673;28;20033;-71
2023/10/31 01:51:55;;;;;;;6.80;2.47;;;;;;;;;;5029853;28;20276;-71
2023/10/31 01:54:21;;;;;;;5.90;2.33;;;;;;;;;;5030664;28;20034;-71
2023/10/31 01:56:48;;;;;;;4.95;2.40;;;;;;;;;;5023689;28;20901;-71
2023/10/31 01:59:13;;;;;;;5.60;1.90;;;;;;;;;;5031167;28;20048;-71
2023/10/31 02:01:41;;;;;;;7.38;2.10;;;;;;;;;;5039368;28;20131;-71
2023/10/31 02:04:07;;;;;;;7.28;2.00;;;;;;;;;;5039022;28;20018;-72
2023/10/31 02:06:32;;;;;;;5.85;2.10;;;;;;;;;;5033071;28;20396;-71
2023/10/31 02:08:57;;;;;;;9.63;1.90;;;;;;;;;;5032602;28;20025;-71
2023/10/31 02:11:22;;;;;;;4.47;1.60;;;;;;;;;;5039340;28;20329;-71
2023/10/31 02:13:48;;;;;;;10.50;1.73;;;;;;;;;;5037080;28;20033;-72
2023/10/31 02:16:13;;;;;;;5.70;1.40;;;;;;;;;;5030619;28;20258;-73
2023/10/31 02:18:38;;;;;;;9.45;2.28;;;;;;;;;;5035352;28;20071;-71
2023/10/31 02:21:04;;;;;;;7.95;1.85;;;;;;;;;;5040323;28;20108;-72
2023/10/31 02:23:29;;;;;;;5.15;1.35;;;;;;;;;;5039029;28;20089;-71
2023/10/31 02:25:54;;;;;;;3.50;1.53;;;;;;;;;;5027511;28;20061;-72
2023/10/31 02:28:20;;;;;;;9.43;1.40;;;;;;;;;;5030214;28;20256;-70
2023/10/31 02:30:45;;;;;;;2.38;1.20;;;;;;;;;;5029625;28;20052;-71
2023/10/31 02:33:10;;;;;;;7.85;1.85;;;;;;;;;;5022349;28;20033;-72
2023/10/31 02:35:35;;;;;;;6.87;2.03;;;;;;;;;;5028157;28;20060;-71
2023/10/31 02:38:00;;;;;;;4.70;1.50;;;;;;;;;;5027568;28;20784;-71
2023/10/31 02:40:26;;;;;;;2.78;1.60;;;;;;;;;;5029175;28;20057;-71
2023/10/31 02:42:51;;;;;;;3.47;1.47;;;;;;;;;;5029898;28;20487;-71
2023/10/31 02:45:17;;;;;;;10.98;1.63;;;;;;;;;;5028680;28;20280;-71
2023/10/31 02:47:42;;;;;;;5.88;1.42;;;;;;;;;;5022813;28;20017;-71
2023/10/31 02:50:07;;;;;;;6.13;1.90;;;;;;;;;;5028525;28;20022;-70
2023/10/31 02:52:32;;;;;;;3.97;1.52;;;;;;;;;;5025594;28;20272;-71
2023/10/31 02:54:58;;;;;;;9.80;1.80;;;;;;;;;;5028789;28;20100;-71
2023/10/31 02:57:23;;;;;;;3.33;1.70;;;;;;;;;;5028827;28;20640;-71
2023/10/31 02:59:48;;;;;;;4.05;2.20;;;;;;;;;;5028731;28;20063;-71
2023/10/31 03:02:13;;;;;;;3.67;1.07;;;;;;;;;;5026476;28;20021;-71
2023/10/31 03:04:38;;;;;;;7.70;1.52;;;;;;;;;;5029161;28;20252;-71
2023/10/31 03:07:04;;;;;;;6.90;1.80;;;;;;;;;;5027302;28;20021;-71
2023/10/31 03:09:29;;;;;;;3.60;1.27;;;;;;;;;;5029557;28;20303;-72
2023/10/31 03:11:54;;;;;;;6.20;1.20;;;;;;;;;;5029009;28;20022;-71
2023/10/31 03:14:19;;;;;;;6.60;1.08;;;;;;;;;;5028518;28;20442;-71
2023/10/31 03:16:44;;;;;;;5.07;1.45;;;;;;;;;;5029480;28;20486;-71
2023/10/31 03:19:09;;;;;;;4.47;1.60;;;;;;;;;;5028028;28;20100;-71
2023/10/31 03:21:35;;;;;;;6.75;1.60;;;;;;;;;;5026589;28;20295;-71
2023/10/31 03:24:00;;;;;;;3.73;1.43;;;;;;;;;;5028599;28;20067;-71
2023/10/31 03:26:26;;;;;;;4.88;1.48;;;;;;;;;;5028618;28;20618;-72
2023/10/31 03:28:56;;;;;;;10.43;1.48;;;;;;;;;;5028119;28;20017;-71
2023/10/31 03:31:21;;;;;;;6.30;1.60;;;;;;;;;;5028502;28;20029;-71
2023/10/31 03:33:47;;;;;;;6.77;1.17;;;;;;;;;;5028112;28;20525;-70
2023/10/31 03:36:12;;;;;;;5.90;1.45;;;;;;;;;;5021561;28;20280;-72
2023/10/31 03:38:37;;;;;;;2.90;1.10;;;;;;;;;;5027495;28;20029;-71
2023/10/31 03:41:03;;;;;;;8.38;1.60;;;;;;;;;;5028792;28;20268;-71
2023/10/31 03:43:28;;;;;;;6.32;1.17;;;;;;;;;;5027376;28;20021;-71
2023/10/31 03:45:54;;;;;;;3.13;1.40;;;;;;;;;;5028073;28;20045;-71
2023/10/31 03:48:19;;;;;;;6.57;1.40;;;;;;;;;;5026683;28;20272;-72
2023/10/31 03:50:44;;;;;;;4.88;1.88;;;;;;;;;;5027215;28;20040;-71
2023/10/31 03:53:10;;;;;;;4.53;1.20;;;;;;;;;;5031589;28;20022;-71
2023/10/31 03:55:35;;;;;;;10.40;1.60;;;;;;;;;;5035450;28;20507;-71
2023/10/31 03:58:00;;;;;;;4.45;1.77;;;;;;;;;;5041586;28;20016;-71
2023/10/31 04:00:25;;;;;;;4.32;1.45;;;;;;;;;;5033960;28;20025;-71
2023/10/31 04:02:51;;;;;;;6.18;1.50;;;;;;;;;;5033859;28;20021;-71
2023/10/31 04:05:16;;;;;;;5.68;1.25;;;;;;;;;;5039607;28;20096;-72
2023/10/31 04:07:41;;;;;;;4.38;1.13;;;;;;;;;;5041978;28;20016;-70
2023/10/31 04:10:07;;;;;;;4.10;1.43;;;;;;;;;;5045391;28;20103;-71
2023/10/31 04:12:33;;;;;;;4.60;1.45;;;;;;;;;;5037223;28;20381;-70
2023/10/31 04:14:58;;;;;;;6.32;1.20;;;;;;;;;;5032930;28;20305;-71
2023/10/31 04:17:23;;;;;;;4.13;1.25;;;;;;;;;;5033547;28;20474;-71
2023/10/31 04:19:48;;;;;;;4.90;1.27;;;;;;;;;;5038447;28;20014;-70
2023/10/31 04:22:14;;;;;;;2.43;0.97;;;;;;;;;;5040764;28;20268;-71
2023/10/31 04:24:39;;;;;;;3.33;1.63;;;;;;;;;;5029832;28;20794;-70
2023/10/31 04:27:04;;;;;;;5.30;1.20;;;;;;;;;;5030526;28;20049;-71
2023/10/31 04:29:29;;;;;;;2.28;1.00;;;;;;;;;;5031149;28;20060;-71
2023/10/31 04:31:54;;;;;;;1.42;0.63;;;;;;;;;;5031332;28;20057;-72
2023/10/31 04:34:20;;;;;;;2.83;0.80;;;;;;;;;;5030859;28;20112;-72
2023/10/31 04:36:45;;;;;;;2.83;1.05;;;;;;;;;;5031061;28;20299;-71
2023/10/31 04:39:10;;;;;;;3.47;0.90;;;;;;;;;;5031167;28;20398;-71
2023/10/31 04:41:35;;;;;;;3.28;1.13;;;;;;;;;;5029805;28;20268;-70
2023/10/31 04:44:00;;;;;;;2.37;0.90;;;;;;;;;;5030301;28;20021;-71
2023/10/31 04:46:28;;;;;;;3.28;1.13;;;;;;;;;;5029217;28;20272;-71
2023/10/31 04:48:54;;;;;;;2.63;1.23;;;;;;;;;;5030393;28;20021;-70
2023/10/31 04:51:19;;;;;;;5.93;1.37;;;;;;;;;;5030636;28;20021;-71
2023/10/31 04:53:44;;;;;;;4.10;1.40;;;;;;;;;;5031163;28;20276;-73
2023/10/31 04:56:13;;;;;;;4.30;1.37;;;;;;;;;;5030824;28;20108;-72
2023/10/31 04:58:39;;;;;;;3.55;0.98;;;;;;;;;;5029005;28;20323;-73
2023/10/31 05:01:07;;;;;;;2.60;0.75;;;;;;;;;;5029615;28;20069;-73
2023/10/31 05:03:32;;;;;;;2.60;1.02;;;;;;;;;;5030520;28;20033;-73
2023/10/31 05:05:58;;;;;;;3.77;0.80;;;;;;;;;;5032006;28;20024;-73
2023/10/31 05:08:23;;;;;;;5.20;1.17;;;;;;;;;;5030340;28;20284;-73
2023/10/31 05:10:48;;;;;;;3.33;1.13;;;;;;;;;;5031248;28;20379;-73
2023/10/31 05:13:13;;;;;;;4.65;1.10;;;;;;;;;;5030028;28;20274;-73
2023/10/31 05:15:39;;;;;;;5.10;1.15;;;;;;;;;;5029300;28;20401;-73
2023/10/31 05:18:04;;;;;;;4.43;0.93;;;;;;;;;;5030998;28;20022;-72
2023/10/31 05:20:29;;;;;;;6.03;1.83;;;;;;;;;;5027715;28;20549;-73
2023/10/31 05:22:54;;;;;;;2.57;1.77;;;;;;;;;;5029045;28;20025;-74
2023/10/31 05:25:20;;;;;;;7.67;2.03;;;;;;;;;;5030954;28;20337;-74
2023/10/31 05:27:45;;;;;;;3.90;1.80;;;;;;;;;;5028896;28;20299;-73
2023/10/31 05:30:13;;;;;;;5.30;2.50;;;;;;;;;;5027809;28;20120;-73
2023/10/31 05:32:38;;;;;;;9.30;2.50;;;;;;;;;;5030387;28;20412;-73
2023/10/31 05:35:03;;;;;;;4.25;2.22;;;;;;;;;;5029551;28;20172;-73
2023/10/31 05:37:28;;;;;;;3.70;1.90;;;;;;;;;;5028650;28;20029;-73
2023/10/31 05:39:54;;;;;;;4.37;2.50;;;;;;;;;;5030924;28;20049;-73
2023/10/31 05:42:20;;;;;;;4.67;2.50;;;;;;;;;;5027302;28;20364;-73
2023/10/31 05:44:45;;;;;;;5.97;2.25;;;;;;;;;;5022890;28;20271;-72
2023/10/31 05:47:11;;;;;;;5.60;2.87;;;;;;;;;;5029140;28;20021;-73
2023/10/31 05:49:36;;;;;;;7.83;2.77;;;;;;;;;;5027916;28;20355;-71
2023/10/31 05:52:01;;;;;;;6.70;3.00;;;;;;;;;;5022838;28;20277;-71
2023/10/31 05:54:26;;;;;;;5.37;2.20;;;;;;;;;;5028469;28;20279;-71
2023/10/31 05:56:51;;;;;;;6.93;2.50;;;;;;;;;;5025300;28;20248;-70
2023/10/31 05:59:16;;;;;;;6.13;2.30;;;;;;;;;;5040805;28;20373;-70
2023/10/31 06:01:43;;;;;;;10.97;3.10;;;;;;;;;;5040123;28;20252;-71
2023/10/31 06:04:08;;;;;;;6.47;2.70;;;;;;;;;;5032732;28;20640;-70
2023/10/31 06:06:36;;;;;;;4.73;2.33;;;;;;;;;;5035754;28;20025;-70
2023/10/31 06:09:02;;;;;;;3.70;2.55;;;;;;;;;;5030131;28;20826;-71
2023/10/31 06:11:27;;;;;;;7.57;3.03;;;;;;;;;;5030153;28;20060;-70
2023/10/31 06:13:52;;;;;;;10.67;4.50;;;;;;;;;;5033741;28;20021;-71
2023/10/31 06:16:17;;;;;;;3.57;2.27;;;;;;;;;;5035660;28;20637;-71
2023/10/31 06:18:43;;;;;;;7.33;3.00;;;;;;;;;;5030355;28;20292;-71
2023/10/31 06:21:08;;;;;;;4.57;3.03;;;;;;;;;;5037933;28;20395;-70
2023/10/31 06:23:34;;;;;;;4.97;2.50;;;;;;;;;;5026925;28;20745;-70
2023/10/31 06:26:00;;;;;;;4.70;2.30;;;;;;;;;;5034191;28;20092;-70
2023/10/31 06:28:25;;;;;;;10.53;2.93;;;;;;;;;;5027175;28;20091;-70
2023/10/31 06:30:50;;;;;;;5.43;2.77;;;;;;;;;;5027713;28;20789;-71
2023/10/31 06:33:15;;;;;;;5.60;2.92;;;;;;;;;;5023426;28;20284;-72
2023/10/31 06:35:41;;;;;;;9.10;3.93;;;;;;;;;;5027963;28;20068;-72
2023/10/31 06:38:06;;;;;;;10.43;4.13;;;;;;;;;;5028402;28;20290;-73
2023/10/31 06:40:31;;;;;;;7.77;3.43;;;;;;;;;;5030144;28;20512;-72
2023/10/31 06:42:56;;;;;;;5.20;2.78;;;;;;;;;;5025933;28;20351;-72
2023/10/31 06:45:22;;;;;;;10.10;3.30;;;;;;;;;;5025814;28;20017;-73
2023/10/31 06:47:47;;;;;;;5.35;3.08;;;;;;;;;;5026517;28;20284;-72
2023/10/31 06:50:12;;;;;;;5.57;3.40;;;;;;;;;;5029169;28;20401;-72
2023/10/31 06:52:37;;;;;;;5.00;3.10;;;;;;;;;;5026289;28;20272;-72
2023/10/31 06:55:02;;;;;;;10.90;3.30;;;;;;;;;;5029151;28;20310;-72
2023/10/31 06:57:28;;;;;;;5.40;3.28;;;;;;;;;;5027837;28;20080;-72
2023/10/31 06:59:53;;;;;;;7.90;2.78;;;;;;;;;;5024636;28;20025;-73
2023/10/31 07:02:18;;;;;;;6.80;3.70;;;;;;;;;;5023906;28;20029;-72
2023/10/31 07:04:43;;;;;;;7.43;3.35;;;;;;;;;;5024884;28;20031;-70
2023/10/31 07:07:08;;;;;;;3.93;2.77;;;;;;;;;;5025369;28;20375;-70
2023/10/31 07:09:34;;;;;;;7.20;3.38;;;;;;;;;;5026093;28;20363;-70
2023/10/31 07:11:59;;;;;;;8.05;3.25;;;;;;;;;;5027831;28;20386;-70
2023/10/31 07:14:24;;;;;;;5.90;3.67;;;;;;;;;;5028908;28;20105;-71
2023/10/31 07:16:49;;;;;;;8.70;4.50;;;;;;;;;;5026326;28;20264;-72
2023/10/31 07:19:15;;;;;;;9.90;4.73;;;;;;;;;;5023785;28;20079;-71
2023/10/31 07:21:40;;;;;;;8.02;4.18;;;;;;;;;;5025992;28;20290;-71
2023/10/31 07:24:07;;;;;;;9.40;4.50;;;;;;;;;;5024755;28;20025;-71
2023/10/31 07:26:32;;;;;;;9.60;5.20;;;;;;;;;;5025340;28;20291;-71
2023/10/31 07:28:57;;;;;;;9.33;4.43;;;;;;;;;;5024915;28;20017;-72
2023/10/31 07:31:23;;;;;;;10.10;4.18;;;;;;;;;;5025960;28;20365;-74
2023/10/31 07:33:48;;;;;;;10.20;5.38;;;;;;;;;;5023968;28;20392;-72
2023/10/31 07:36:13;;;;;;;13.57;5.23;;;;;;;;;;5026521;28;20024;-73
2023/10/31 07:38:38;;;;;;;10.95;6.38;;;;;;;;;;5028534;28;20671;-72
2023/10/31 07:41:04;;;;;;;12.50;6.47;;;;;;;;;;5025517;28;20014;-73
2023/10/31 07:43:29;;;;;;;15.88;6.70;;;;;;;;;;5027167;28;20098;-73
2023/10/31 07:45:54;;;;;;;14.73;6.43;;;;;;;;;;5029944;28;20025;-72
2023/10/31 07:48:19;;;;;;;14.55;6.50;;;;;;;;;;5021540;28;20021;-74
2023/10/31 07:50:45;;;;;;;12.10;6.20;;;;;;;;;;5025239;28;20021;-73
2023/10/31 07:53:10;;;;;;;13.48;6.78;;;;;;;;;;5025428;28;20696;-73
2023/10/31 07:55:35;;;;;;;14.37;6.87;;;;;;;;;;5027293;28;20079;-72
2023/10/31 07:58:00;;;;;;;12.55;7.18;;;;;;;;;;5028621;28;20988;-73
2023/10/31 08:00:26;;;;;;;11.63;6.73;;;;;;;;;;5038906;28;20028;-73
2023/10/31 08:02:51;;;;;;;13.02;6.85;;;;;;;;;;5034857;28;20264;-73
2023/10/31 08:05:16;;;;;;;15.93;6.45;;;;;;;;;;5032294;28;20016;-74
2023/10/31 08:07:42;;;;;;;13.03;5.40;;;;;;;;;;5031457;28;20058;-73
2023/10/31 08:10:07;;;;;;;13.90;6.37;;;;;;;;;;5025266;28;20348;-73
2023/10/31 08:12:32;;;;;;;14.25;6.88;;;;;;;;;;5021057;28;20769;-73
2023/10/31 08:14:58;;;;;;;16.00;6.50;;;;;;;;;;5027793;28;20018;-73
2023/10/31 08:17:23;;;;;;;15.57;5.80;;;;;;;;;;5024507;28;20545;-70
2023/10/31 08:19:48;;;;;;;12.07;4.95;;;;;;;;;;5025265;28;20017;-70
2023/10/31 08:22:14;;;;;;;13.40;4.77;;;;;;;;;;5025798;28;20075;-73
2023/10/31 08:24:39;;;;;;;13.70;5.37;;;;;;;;;;5026335;28;20256;-72
2023/10/31 08:27:04;;;;;;;15.43;4.13;;;;;;;;;;5026099;28;20264;-73
2023/10/31 08:29:29;;;;;;;15.82;5.55;;;;;;;;;;5024389;28;20267;-72
2023/10/31 08:31:55;;;;;;;12.80;4.55;;;;;;;;;;5027743;28;20014;-73
2023/10/31 08:34:20;;;;;;;9.20;3.85;;;;;;;;;;5024767;28;20009;-73
2023/10/31 08:36:45;;;;;;;16.00;3.77;;;;;;;;;;5025570;28;20037;-72
2023/10/31 08:39:10;;;;;;;9.38;3.90;;;;;;;;;;5031438;28;20276;-73
2023/10/31 08:41:37;;;;;;;7.17;3.47;;;;;;;;;;5025665;28;20013;-72
2023/10/31 08:44:03;;;;;;;11.80;4.03;;;;;;;;;;5030958;28;20259;-72
2023/10/31 08:46:28;;;;;;;10.73;3.45;;;;;;;;;;5030400;28;20021;-73
2023/10/31 08:48:53;;;;;;;6.93;3.50;;;;;;;;;;5030162;28;20025;-73
2023/10/31 08:51:19;;;;;;;8.27;4.03;;;;;;;;;;5029219;28;20359;-73
2023/10/31 08:53:44;;;;;;;9.57;3.92;;;;;;;;;;5028097;28;20315;-72
2023/10/31 08:56:09;;;;;;;19.70;4.18;;;;;;;;;;5030427;28;20100;-73
2023/10/31 08:58:35;;;;;;;5.30;2.83;;;;;;;;;;5027877;28;20505;-72
2023/10/31 09:01:00;;;;;;;5.97;2.97;;;;;;;;;;5030433;28;20245;-73
2023/10/31 09:03:25;;;;;;;12.15;3.90;;;;;;;;;;5028547;28;20078;-73
2023/10/31 09:05:50;;;;;;;7.10;3.58;;;;;;;;;;5026882;28;20104;-73
2023/10/31 09:08:15;;;;;;;5.73;3.10;;;;;;;;;;5030075;28;20101;-73
2023/10/31 09:10:42;;;;;;;6.70;2.90;;;;;;;;;;5026658;28;20276;-74
2023/10/31 09:13:07;;;;;;;5.10;2.50;;;;;;;;;;5028557;28;20256;-73
2023/10/31 09:15:33;;;;;;;5.03;3.50;;;;;;;;;;5028283;28;20026;-73
2023/10/31 09:17:58;;;;;;;13.23;3.25;;;;;;;;;;5030170;28;20083;-72
2023/10/31 09:20:23;;;;;;;5.90;2.53;;;;;;;;;;5028161;28;20017;-71
2023/10/31 09:22:48;;;;;;;5.33;2.33;;;;;;;;;;5031508;28;20807;-71
2023/10/31 09:25:13;;;;;;;6.27;2.50;;;;;;;;;;5029870;28;20252;-71
2023/10/31 09:27:40;;;;;;;5.93;2.27;;;;;;;;;;5029941;28;20640;-71
2023/10/31 09:30:06;;;;;;;6.35;2.38;;;;;;;;;;5029459;28;20795;-72
2023/10/31 09:32:31;;;;;;;10.27;2.47;;;;;;;;;;5025779;28;20022;-71
2023/10/31 09:34:56;;;;;;;7.40;1.77;;;;;;;;;;5026891;28;20040;-71
2023/10/31 09:37:21;;;;;;;6.73;2.67;;;;;;;;;;5028237;28;20268;-71
2023/10/31 09:39:46;;;;;;;7.80;2.20;;;;;;;;;;5027343;28;20837;-71
2023/10/31 09:42:13;;;;;;;5.82;2.35;;;;;;;;;;5030954;28;20808;-72
2023/10/31 09:44:38;;;;;;;3.92;1.90;;;;;;;;;;5025613;28;20093;-72
2023/10/31 09:47:05;;;;;;;5.22;1.92;;;;;;;;;;5027498;28;20020;-72
2023/10/31 09:49:30;;;;;;;13.50;2.17;;;;;;;;;;5030690;28;20064;-71
2023/10/31 09:51:55;;;;;;;18.63;2.17;;;;;;;;;;5028941;28;20048;-73
2023/10/31 09:54:21;;;;;;;3.97;2.03;;;;;;;;;;5022507;28;20268;-72
2023/10/31 09:56:46;;;;;;;6.82;2.50;;;;;;;;;;5028281;28;20673;-71
2023/10/31 09:59:13;;;;;;;9.00;1.85;;;;;;;;;;5025815;28;20037;-72
2023/10/31 10:01:38;;;;;;;4.13;1.75;;;;;;;;;;5027720;28;20025;-72
2023/10/31 10:04:05;;;;;;;5.97;2.27;;;;;;;;;;5028932;28;20365;-72
2023/10/31 10:06:30;;;;;;;3.50;2.08;;;;;;;;;;5025998;28;20779;-71
2023/10/31 10:08:55;;;;;;;5.63;2.05;;;;;;;;;;5030760;28;20028;-72
2023/10/31 10:11:21;;;;;;;10.48;1.92;;;;;;;;;;5028718;28;20014;-72
2023/10/31 10:13:47;;;;;;;12.20;1.95;;;;;;;;;;5030281;28;20025;-72
2023/10/31 10:16:12;;;;;;;3.80;2.05;;;;;;;;;;5028395;28;20025;-72
2023/10/31 10:18:40;;;;;;;6.37;1.63;;;;;;;;;;5029894;28;20025;-72
2023/10/31 10:21:06;;;;;;;4.18;1.55;;;;;;;;;;5028578;28;20820;-72
2023/10/31 10:23:32;;;;;;;7.25;1.42;;;;;;;;;;5028495;28;20018;-71
2023/10/31 10:25:58;;;;;;;17.92;2.67;;;;;;;;;;5028713;28;20017;-72
2023/10/31 10:28:26;;;;;;;6.68;2.28;;;;;;;;;;5028230;28;20076;-72
2023/10/31 10:30:52;;;;;;;8.27;1.70;;;;;;;;;;5027082;28;20047;-72
2023/10/31 10:33:17;;;;;;;17.75;1.92;;;;;;;;;;5030119;28;20591;-72
2023/10/31 10:35:43;;;;;;;2.25;1.10;;;;;;;;;;5026312;28;20029;-72
2023/10/31 10:38:15;;;;;;;3.50;1.40;;;;;;;;;;5026413;28;20026;-71
2023/10/31 10:40:42;;;;;;;5.18;1.35;;;;;;;;;;5026008;28;20042;-71
2023/10/31 10:43:11;;;;;;;14.75;1.90;;;;;;;;;;5028586;28;20013;-72
2023/10/31 10:45:38;;;;;;;3.67;2.97;;;;;;;;;;5026452;28;21079;-71
2023/10/31 10:48:04;;;;;;;8.48;1.95;;;;;;;;;;5026416;28;20029;-71
2023/10/31 10:50:30;;;;;;;8.48;1.30;;;;;;;;;;5029930;28;20028;-72
2023/10/31 10:53:18;;;;;;;6.57;1.17;;;;;;;;;;5026111;28;20394;-72
2023/10/31 10:55:50;;;;;;;2.47;0.90;;;;;;;;;;5024043;28;20029;-71
2023/10/31 10:58:22;;;;;;;3.25;1.08;;;;;;;;;;5025057;28;20163;-71
2023/10/31 11:00:48;;;;;;;9.00;1.33;;;;;;;;;;5026523;28;20040;-72
2023/10/31 11:03:14;;;;;;;1.75;0.70;;;;;;;;;;5029165;28;20093;-72
2023/10/31 11:05:40;;;;;;;7.88;1.20;;;;;;;;;;5028710;28;20167;-72
2023/10/31 11:08:05;;;;;;;1.85;0.90;;;;;;;;;;5027701;28;20267;-71
2023/10/31 11:10:31;;;;;;;4.47;1.40;;;;;;;;;;5027412;28;20013;-72
2023/10/31 11:12:56;;;;;;;3.65;0.98;;;;;;;;;;5026795;28;20378;-71
2023/10/31 11:15:22;;;;;;;5.75;0.93;;;;;;;;;;5028688;28;20037;-71
2023/10/31 11:17:48;;;;;;;2.45;1.00;;;;;;;;;;5024082;28;20018;-71
2023/10/31 11:20:15;;;;;;;1.33;0.60;;;;;;;;;;5027388;28;20018;-71
2023/10/31 11:22:42;;;;;;;1.00;0.65;;;;;;;;;;5023277;28;20041;-72
2023/10/31 11:25:34;;;;;;;4.20;0.80;;;;;;;;;;5025422;28;20052;-72
2023/10/31 11:28:10;;;;;;;7.95;1.10;;;;;;;;;;5026249;28;20562;-71
2023/10/31 11:30:36;;;;;;;3.70;1.15;;;;;;;;;;5026114;28;20435;-72
2023/10/31 11:33:01;;;;;;;2.75;0.60;;;;;;;;;;5026647;28;20104;-72
2023/10/31 11:35:29;;;;;;;2.13;0.68;;;;;;;;;;5027088;28;20025;-71
2023/10/31 11:38:07;;;;;;;1.80;0.70;;;;;;;;;;5029452;28;20014;-71
2023/10/31 11:40:33;;;;;;;1.83;0.60;;;;;;;;;;5024228;28;20041;-72
2023/10/31 11:42:58;;;;;;;4.03;0.77;;;;;;;;;;5028944;28;20024;-71
2023/10/31 11:45:25;;;;;;;3.97;0.70;;;;;;;;;;5028862;28;20478;-72
2023/10/31 11:47:50;;;;;;;1.85;0.68;;;;;;;;;;5027699;28;20233;-72
2023/10/31 11:50:16;;;;;;;1.83;0.90;;;;;;;;;;5025069;28;20394;-71
2023/10/31 11:52:41;;;;;;;2.22;0.70;;;;;;;;;;5027192;28;20056;-71
2023/10/31 11:55:10;;;;;;;2.43;0.60;;;;;;;;;;5029732;28;20100;-72
2023/10/31 11:57:36;;;;;;;3.80;0.80;;;;;;;;;;5022694;28;20287;-71
2023/10/31 12:00:02;;;;;;;4.25;0.70;;;;;;;;;;5027304;28;20017;-71
2023/10/31 12:02:27;;;;;;;2.67;0.75;;;;;;;;;;5027714;28;20059;-71
2023/10/31 12:05:06;;;;;;;5.32;1.15;;;;;;;;;;5024195;28;20010;-71
2023/10/31 12:07:40;;;;;;;5.22;0.60;;;;;;;;;;5026498;28;20021;-71
2023/10/31 12:10:06;;;;;;;2.67;0.60;;;;;;;;;;5019251;28;20051;-71
2023/10/31 12:12:32;;;;;;;1.10;0.60;;;;;;;;;;5027910;28;20060;-72
2023/10/31 12:15:04;;;;;;;4.07;0.70;;;;;;;;;;5031686;28;20067;-71
2023/10/31 12:17:29;;;;;;;3.85;1.75;;;;;;;;;;5026865;28;20028;-71
2023/10/31 12:19:55;;;;;;;12.77;0.93;;;;;;;;;;5027626;28;20432;-72
2023/10/31 12:22:21;;;;;;;3.03;0.85;;;;;;;;;;5026127;28;20276;-72
2023/10/31 12:24:46;;;;;;;2.10;0.85;;;;;;;;;;5027736;28;20049;-71
2023/10/31 12:27:11;;;;;;;5.20;0.70;;;;;;;;;;5028399;28;20053;-72
2023/10/31 12:29:36;;;;;;;2.38;0.70;;;;;;;;;;5028286;28;20356;-72
2023/10/31 12:32:02;;;;;;;2.90;0.90;;;;;;;;;;5030107;28;20017;-72
2023/10/31 12:34:27;;;;;;;10.45;1.20;;;;;;;;;;5027856;28;20375;-72
2023/10/31 12:36:53;;;;;;;3.85;1.50;;;;;;;;;;5030158;28;20017;-71
2023/10/31 12:39:22;;;;;;;2.78;0.70;;;;;;;;;;5027913;28;20639;-71
2023/10/31 12:41:47;;;;;;;1.42;0.70;;;;;;;;;;5028354;28;20037;-72
2023/10/31 12:44:15;;;;;;;3.40;0.93;;;;;;;;;;5030742;28;20010;-71
2023/10/31 12:46:41;;;;;;;1.85;0.57;;;;;;;;;;5027942;28;20123;-71
2023/10/31 12:49:15;;;;;;;1.17;0.70;;;;;;;;;;5032517;28;20053;-71
2023/10/31 12:51:56;;;;;;;5.32;1.00;;;;;;;;;;5026824;28;20025;-72
2023/10/31 12:54:34;;;;;;;5.32;1.00;;;;;;;;;;5027220;28;20029;-71
2023/10/31 12:57:09;;;;;;;2.10;1.13;;;;;;;;;;5024948;28;20075;-71
2023/10/31 12:59:38;;;;;;;2.25;1.00;;;;;;;;;;5028736;28;20021;-72
2023/10/31 13:02:04;;;;;;;3.33;1.10;;;;;;;;;;5029899;28;20633;-71
2023/10/31 13:04:30;;;;;;;4.35;1.20;;;;;;;;;;5030259;28;20056;-71
2023/10/31 13:06:56;;;;;;;8.55;1.25;;;;;;;;;;5028307;28;20049;-71
2023/10/31 13:09:21;;;;;;;5.65;0.80;;;;;;;;;;5027993;28;20056;-71
2023/10/31 13:11:47;;;;;;;1.53;0.50;;;;;;;;;;5021584;28;21262;-72
2023/10/31 13:14:13;;;;;;;4.93;0.85;;;;;;;;;;5031348;28;20287;-71
2023/10/31 13:16:38;;;;;;;3.95;1.08;;;;;;;;;;5029250;28;20017;-72
2023/10/31 13:19:03;;;;;;;3.83;0.90;;;;;;;;;;5026121;28;20028;-71
2023/10/31 13:21:29;;;;;;;6.73;1.20;;;;;;;;;;5026942;28;20100;-71
2023/10/31 13:23:54;;;;;;;4.37;0.93;;;;;;;;;;5026284;28;20279;-71
2023/10/31 13:26:19;;;;;;;1.47;0.80;;;;;;;;;;5030830;28;20268;-71
2023/10/31 13:28:44;;;;;;;4.00;0.90;;;;;;;;;;5031432;28;20353;-71
2023/10/31 13:31:11;;;;;;;7.03;0.90;;;;;;;;;;5028830;28;20248;-71
2023/10/31 13:33:36;;;;;;;5.43;1.17;;;;;;;;;;5026085;28;20809;-71
2023/10/31 13:36:01;;;;;;;4.50;0.80;;;;;;;;;;5025877;28;20014;-71
2023/10/31 13:38:26;;;;;;;5.40;1.30;;;;;;;;;;5025474;28;20557;-71
2023/10/31 13:40:51;;;;;;;3.67;1.10;;;;;;;;;;5022040;28;20280;-71
2023/10/31 13:43:17;;;;;;;8.50;1.60;;;;;;;;;;5025278;28;20260;-72
2023/10/31 13:45:42;;;;;;;3.60;0.98;;;;;;;;;;5023273;28;20489;-71
2023/10/31 13:48:07;;;;;;;5.20;0.80;;;;;;;;;;5030605;28;20051;-72
2023/10/31 13:50:33;;;;;;;3.13;0.98;;;;;;;;;;5028447;28;20351;-71
2023/10/31 13:52:58;;;;;;;9.10;1.20;;;;;;;;;;5027449;28;20035;-71
2023/10/31 13:55:23;;;;;;;3.07;0.93;;;;;;;;;;5026771;28;20052;-72
2023/10/31 13:57:49;;;;;;;2.47;0.88;;;;;;;;;;5026386;28;20288;-71
2023/10/31 14:00:14;;;;;;;5.47;1.33;;;;;;;;;;5024933;28;20529;-72
2023/10/31 14:02:40;;;;;;;11.45;1.30;;;;;;;;;;5025315;28;20018;-71
2023/10/31 14:05:05;;;;;;;4.10;1.13;;;;;;;;;;5028253;28;20196;-71
2023/10/31 14:07:30;;;;;;;5.60;1.20;;;;;;;;;;5024518;28;20057;-71
2023/10/31 14:09:56;;;;;;;6.47;1.40;;;;;;;;;;5026969;28;20405;-71
2023/10/31 14:12:22;;;;;;;12.02;1.02;;;;;;;;;;5023908;28;20080;-72
2023/10/31 14:14:48;;;;;;;6.00;1.02;;;;;;;;;;5026021;28;20096;-72
2023/10/31 14:17:14;;;;;;;5.70;0.85;;;;;;;;;;5027183;28;20478;-72
2023/10/31 14:19:39;;;;;;;6.07;0.90;;;;;;;;;;5024378;28;20033;-72
2023/10/31 14:22:05;;;;;;;4.33;1.20;;;;;;;;;;5027695;28;20066;-72
2023/10/31 14:24:31;;;;;;;10.18;1.90;;;;;;;;;;5025411;28;20252;-71
2023/10/31 14:26:58;;;;;;;7.93;1.67;;;;;;;;;;5025105;28;20021;-71
2023/10/31 14:29:24;;;;;;;6.57;1.52;;;;;;;;;;5022585;28;20474;-72
2023/10/31 14:31:49;;;;;;;8.05;1.45;;;;;;;;;;5022769;28;20092;-71